Terminal Aerodrome Forecast
Issued by NWS Mt. Holly, NJ

Home | Current Version | Previous Version | Text Only | Print | Product List | Glossary On
Versions: 1 2 3 4 5 6 7 8 9 10 11 12 13 14 15 16 17 18 19 20
000
FTUS41 KPHI 100500
TAFRDG
TAF
KRDG 100537Z 1006/1106 36004KT P6SM SCT035 BKN100
     FM100800 VRB03KT 4SM BR SCT015
     FM101200 03004KT P6SM SCT035
     FM101600 09004KT P6SM SCT045
     FM102200 VRB03KT P6SM SCT045 BKN100
     FM110300 VRB03KT 4SM HZ SCT025 BKN100=

USA.gov is the U.S. government's official web portal to all federal, state and local government web resources and services.